sensor_id;sensor_type;location;lat;lon;timestamp;temperature;humidity
10155;DHT22;5118;48.570;7.916;2023-07-13T00:01:14;18.80;99.90
10155;DHT22;5118;48.570;7.916;2023-07-13T00:03:43;18.80;99.90
10155;DHT22;5118;48.570;7.916;2023-07-13T00:06:11;18.90;99.90
10155;DHT22;5118;48.570;7.916;2023-07-13T00:08:39;18.90;99.90
10155;DHT22;5118;48.570;7.916;2023-07-13T00:11:09;18.90;99.90
10155;DHT22;5118;48.570;7.916;2023-07-13T00:13:38;18.90;99.90
10155;DHT22;5118;48.570;7.916;2023-07-13T00:16:08;18.90;99.90
10155;DHT22;5118;48.570;7.916;2023-07-13T00:18:37;18.90;99.90
10155;DHT22;5118;48.570;7.916;2023-07-13T00:21:05;19.00;99.90
10155;DHT22;5118;48.570;7.916;2023-07-13T00:23:35;18.90;99.90
10155;DHT22;5118;48.570;7.916;2023-07-13T00:26:06;18.80;99.90
10155;DHT22;5118;48.570;7.916;2023-07-13T00:28:37;18.80;99.90
10155;DHT22;5118;48.570;7.916;2023-07-13T00:31:07;18.80;99.90
10155;DHT22;5118;48.570;7.916;2023-07-13T00:33:36;18.70;99.90
10155;DHT22;5118;48.570;7.916;2023-07-13T00:36:05;18.70;99.90
10155;DHT22;5118;48.570;7.916;2023-07-13T00:38:33;18.60;99.90
10155;DHT22;5118;48.570;7.916;2023-07-13T00:41:02;18.70;99.90
10155;DHT22;5118;48.570;7.916;2023-07-13T00:43:31;18.60;99.90
10155;DHT22;5118;48.570;7.916;2023-07-13T00:46:16;18.50;99.90
10155;DHT22;5118;48.570;7.916;2023-07-13T00:48:46;18.40;99.90
10155;DHT22;5118;48.570;7.916;2023-07-13T00:51:19;18.30;99.90
10155;DHT22;5118;48.570;7.916;2023-07-13T00:53:50;18.20;99.90
10155;DHT22;5118;48.570;7.916;2023-07-13T00:56:18;18.10;99.90
10155;DHT22;5118;48.570;7.916;2023-07-13T00:58:47;18.00;99.90
10155;DHT22;5118;48.570;7.916;2023-07-13T01:01:19;17.90;99.90
10155;DHT22;5118;48.570;7.916;2023-07-13T01:03:47;17.90;99.90
10155;DHT22;5118;48.570;7.916;2023-07-13T01:06:16;17.80;99.90
10155;DHT22;5118;48.570;7.916;2023-07-13T01:08:47;17.70;99.90
10155;DHT22;5118;48.570;7.916;2023-07-13T01:11:19;17.70;99.90
10155;DHT22;5118;48.570;7.916;2023-07-13T01:13:48;17.60;99.90
10155;DHT22;5118;48.570;7.916;2023-07-13T01:16:24;17.60;99.90
10155;DHT22;5118;48.570;7.916;2023-07-13T01:18:53;17.50;99.90
10155;DHT22;5118;48.570;7.916;2023-07-13T01:21:24;17.40;99.90
10155;DHT22;5118;48.570;7.916;2023-07-13T01:23:53;17.40;99.90
10155;DHT22;5118;48.570;7.916;2023-07-13T01:26:22;17.40;99.90
10155;DHT22;5118;48.570;7.916;2023-07-13T01:28:50;17.30;99.90
10155;DHT22;5118;48.570;7.916;2023-07-13T01:31:19;17.30;99.90
10155;DHT22;5118;48.570;7.916;2023-07-13T01:33:47;17.30;99.90
10155;DHT22;5118;48.570;7.916;2023-07-13T01:36:16;17.30;99.90
10155;DHT22;5118;48.570;7.916;2023-07-13T01:38:46;17.30;99.90
10155;DHT22;5118;48.570;7.916;2023-07-13T01:41:14;17.20;99.90
10155;DHT22;5118;48.570;7.916;2023-07-13T01:43:42;17.20;99.90
10155;DHT22;5118;48.570;7.916;2023-07-13T01:46:11;17.10;99.90
10155;DHT22;5118;48.570;7.916;2023-07-13T01:48:42;17.10;99.90
10155;DHT22;5118;48.570;7.916;2023-07-13T01:51:10;17.00;99.90
10155;DHT22;5118;48.570;7.916;2023-07-13T01:53:39;16.90;99.90
10155;DHT22;5118;48.570;7.916;2023-07-13T01:56:09;16.90;99.90
10155;DHT22;5118;48.570;7.916;2023-07-13T01:58:38;16.80;99.90
10155;DHT22;5118;48.570;7.916;2023-07-13T02:01:06;16.80;99.90
10155;DHT22;5118;48.570;7.916;2023-07-13T02:03:35;16.70;99.90
10155;DHT22;5118;48.570;7.916;2023-07-13T02:06:03;16.70;99.90
10155;DHT22;5118;48.570;7.916;2023-07-13T02:08:32;16.70;99.90
10155;DHT22;5118;48.570;7.916;2023-07-13T02:11:03;16.70;99.90
10155;DHT22;5118;48.570;7.916;2023-07-13T02:13:32;16.70;99.90
10155;DHT22;5118;48.570;7.916;2023-07-13T02:16:01;16.70;99.90
10155;DHT22;5118;48.570;7.916;2023-07-13T02:18:30;16.70;99.90
10155;DHT22;5118;48.570;7.916;2023-07-13T02:20:58;16.70;99.90
10155;DHT22;5118;48.570;7.916;2023-07-13T02:23:26;16.70;99.90
10155;DHT22;5118;48.570;7.916;2023-07-13T02:25:55;16.60;99.90
10155;DHT22;5118;48.570;7.916;2023-07-13T02:28:24;16.60;99.90
10155;DHT22;5118;48.570;7.916;2023-07-13T02:30:54;16.50;99.90
10155;DHT22;5118;48.570;7.916;2023-07-13T02:33:22;16.40;99.90
10155;DHT22;5118;48.570;7.916;2023-07-13T02:35:51;16.40;99.90
10155;DHT22;5118;48.570;7.916;2023-07-13T02:38:19;16.30;99.90
10155;DHT22;5118;48.570;7.916;2023-07-13T02:40:47;16.30;99.90
10155;DHT22;5118;48.570;7.916;2023-07-13T02:43:16;16.20;99.90
10155;DHT22;5118;48.570;7.916;2023-07-13T02:45:47;16.20;99.90
10155;DHT22;5118;48.570;7.916;2023-07-13T02:48:16;16.10;99.90
10155;DHT22;5118;48.570;7.916;2023-07-13T02:50:45;16.10;99.90
10155;DHT22;5118;48.570;7.916;2023-07-13T02:53:14;16.10;99.90
10155;DHT22;5118;48.570;7.916;2023-07-13T02:55:42;16.00;99.90
10155;DHT22;5118;48.570;7.916;2023-07-13T02:58:14;16.00;99.90
10155;DHT22;5118;48.570;7.916;2023-07-13T03:00:45;16.00;99.90
10155;DHT22;5118;48.570;7.916;2023-07-13T03:03:15;16.00;99.90
10155;DHT22;5118;48.570;7.916;2023-07-13T03:05:45;16.00;99.90
10155;DHT22;5118;48.570;7.916;2023-07-13T03:08:22;16.00;99.90
10155;DHT22;5118;48.570;7.916;2023-07-13T03:10:59;15.90;99.90
10155;DHT22;5118;48.570;7.916;2023-07-13T03:13:30;15.90;99.90
10155;DHT22;5118;48.570;7.916;2023-07-13T03:15:59;15.90;99.90
10155;DHT22;5118;48.570;7.916;2023-07-13T03:18:30;15.80;99.90
10155;DHT22;5118;48.570;7.916;2023-07-13T03:21:03;15.80;99.90
10155;DHT22;5118;48.570;7.916;2023-07-13T03:23:32;15.70;99.90
10155;DHT22;5118;48.570;7.916;2023-07-13T03:26:04;15.70;99.90
10155;DHT22;5118;48.570;7.916;2023-07-13T03:28:34;15.70;99.90
10155;DHT22;5118;48.570;7.916;2023-07-13T03:31:05;15.70;99.90
10155;DHT22;5118;48.570;7.916;2023-07-13T03:33:36;15.60;99.90
10155;DHT22;5118;48.570;7.916;2023-07-13T03:36:06;15.50;99.90
10155;DHT22;5118;48.570;7.916;2023-07-13T03:38:36;15.50;99.90
10155;DHT22;5118;48.570;7.916;2023-07-13T03:41:04;15.40;99.90
10155;DHT22;5118;48.570;7.916;2023-07-13T03:43:33;15.30;99.90
10155;DHT22;5118;48.570;7.916;2023-07-13T03:46:01;15.20;99.90
10155;DHT22;5118;48.570;7.916;2023-07-13T03:48:30;15.20;99.90
10155;DHT22;5118;48.570;7.916;2023-07-13T03:51:00;15.20;99.90
10155;DHT22;5118;48.570;7.916;2023-07-13T03:53:29;15.10;99.90
10155;DHT22;5118;48.570;7.916;2023-07-13T03:55:57;15.10;99.90
10155;DHT22;5118;48.570;7.916;2023-07-13T03:58:29;15.10;99.90
10155;DHT22;5118;48.570;7.916;2023-07-13T04:01:06;15.00;99.90
10155;DHT22;5118;48.570;7.916;2023-07-13T04:03:36;15.10;99.90
10155;DHT22;5118;48.570;7.916;2023-07-13T04:06:13;15.00;99.90
10155;DHT22;5118;48.570;7.916;2023-07-13T04:08:49;15.00;99.90
10155;DHT22;5118;48.570;7.916;2023-07-13T04:11:20;15.00;99.90
10155;DHT22;5118;48.570;7.916;2023-07-13T04:13:49;15.00;99.90
10155;DHT22;5118;48.570;7.916;2023-07-13T04:16:18;15.00;99.90
10155;DHT22;5118;48.570;7.916;2023-07-13T04:18:48;15.00;99.90
10155;DHT22;5118;48.570;7.916;2023-07-13T04:21:18;15.00;99.90
10155;DHT22;5118;48.570;7.916;2023-07-13T04:23:46;15.00;99.90
10155;DHT22;5118;48.570;7.916;2023-07-13T04:26:14;15.00;99.90
10155;DHT22;5118;48.570;7.916;2023-07-13T04:28:43;15.10;99.90
10155;DHT22;5118;48.570;7.916;2023-07-13T04:31:11;15.10;99.90
10155;DHT22;5118;48.570;7.916;2023-07-13T04:33:40;15.10;99.90
10155;DHT22;5118;48.570;7.916;2023-07-13T04:36:11;15.10;99.90
10155;DHT22;5118;48.570;7.916;2023-07-13T04:38:41;15.20;99.90
10155;DHT22;5118;48.570;7.916;2023-07-13T04:41:09;15.30;99.90
10155;DHT22;5118;48.570;7.916;2023-07-13T04:43:38;15.30;99.90
10155;DHT22;5118;48.570;7.916;2023-07-13T04:46:08;15.40;99.90
10155;DHT22;5118;48.570;7.916;2023-07-13T04:48:38;15.50;99.90
10155;DHT22;5118;48.570;7.916;2023-07-13T04:51:07;15.50;99.90
10155;DHT22;5118;48.570;7.916;2023-07-13T04:53:36;15.50;99.90
10155;DHT22;5118;48.570;7.916;2023-07-13T04:56:05;15.60;99.90
10155;DHT22;5118;48.570;7.916;2023-07-13T04:58:35;15.70;99.90
10155;DHT22;5118;48.570;7.916;2023-07-13T05:01:05;15.70;99.90
10155;DHT22;5118;48.570;7.916;2023-07-13T05:03:33;15.80;99.90
10155;DHT22;5118;48.570;7.916;2023-07-13T05:06:05;15.80;99.90
10155;DHT22;5118;48.570;7.916;2023-07-13T05:08:34;15.90;99.90
10155;DHT22;5118;48.570;7.916;2023-07-13T05:11:05;16.00;99.90
10155;DHT22;5118;48.570;7.916;2023-07-13T05:13:34;16.10;99.90
10155;DHT22;5118;48.570;7.916;2023-07-13T05:16:04;16.20;99.90
10155;DHT22;5118;48.570;7.916;2023-07-13T05:18:35;16.30;99.90
10155;DHT22;5118;48.570;7.916;2023-07-13T05:21:09;16.50;99.90
10155;DHT22;5118;48.570;7.916;2023-07-13T05:23:39;16.60;99.90
10155;DHT22;5118;48.570;7.916;2023-07-13T05:26:10;16.80;99.90
10155;DHT22;5118;48.570;7.916;2023-07-13T05:28:39;16.90;99.90
10155;DHT22;5118;48.570;7.916;2023-07-13T05:31:08;17.10;99.90
10155;DHT22;5118;48.570;7.916;2023-07-13T05:33:37;17.20;99.90
10155;DHT22;5118;48.570;7.916;2023-07-13T05:36:05;17.40;99.90
10155;DHT22;5118;48.570;7.916;2023-07-13T05:38:34;17.50;99.90
10155;DHT22;5118;48.570;7.916;2023-07-13T05:41:02;17.70;99.90
10155;DHT22;5118;48.570;7.916;2023-07-13T05:43:34;17.80;99.90
10155;DHT22;5118;48.570;7.916;2023-07-13T05:46:02;17.90;99.90
10155;DHT22;5118;48.570;7.916;2023-07-13T05:48:30;18.00;99.90
10155;DHT22;5118;48.570;7.916;2023-07-13T05:51:00;18.10;99.90
10155;DHT22;5118;48.570;7.916;2023-07-13T05:53:29;18.10;99.90
10155;DHT22;5118;48.570;7.916;2023-07-13T05:55:58;18.10;99.90
10155;DHT22;5118;48.570;7.916;2023-07-13T05:58:29;18.10;99.90
10155;DHT22;5118;48.570;7.916;2023-07-13T06:01:04;18.10;99.90
10155;DHT22;5118;48.570;7.916;2023-07-13T06:03:33;18.10;99.90
10155;DHT22;5118;48.570;7.916;2023-07-13T06:06:01;18.10;99.90
10155;DHT22;5118;48.570;7.916;2023-07-13T06:08:30;18.20;99.90
10155;DHT22;5118;48.570;7.916;2023-07-13T06:11:03;18.20;99.90
10155;DHT22;5118;48.570;7.916;2023-07-13T06:13:32;18.40;99.90
10155;DHT22;5118;48.570;7.916;2023-07-13T06:16:02;18.50;99.90
10155;DHT22;5118;48.570;7.916;2023-07-13T06:18:33;18.60;99.90
10155;DHT22;5118;48.570;7.916;2023-07-13T06:21:06;18.60;99.90
10155;DHT22;5118;48.570;7.916;2023-07-13T06:23:34;18.60;99.90
10155;DHT22;5118;48.570;7.916;2023-07-13T06:26:04;18.70;99.90
10155;DHT22;5118;48.570;7.916;2023-07-13T06:28:33;18.80;99.90
10155;DHT22;5118;48.570;7.916;2023-07-13T06:31:05;18.80;99.90
10155;DHT22;5118;48.570;7.916;2023-07-13T06:33:33;18.90;99.90
10155;DHT22;5118;48.570;7.916;2023-07-13T06:36:02;19.00;99.90
10155;DHT22;5118;48.570;7.916;2023-07-13T06:38:32;19.10;99.90
10155;DHT22;5118;48.570;7.916;2023-07-13T06:41:00;19.10;99.90
10155;DHT22;5118;48.570;7.916;2023-07-13T06:43:29;19.30;99.90
10155;DHT22;5118;48.570;7.916;2023-07-13T06:45:59;19.40;99.90
10155;DHT22;5118;48.570;7.916;2023-07-13T06:48:29;19.40;99.90
10155;DHT22;5118;48.570;7.916;2023-07-13T06:50:57;19.40;99.90
10155;DHT22;5118;48.570;7.916;2023-07-13T06:53:26;19.50;99.90
10155;DHT22;5118;48.570;7.916;2023-07-13T06:55:54;19.60;99.90
10155;DHT22;5118;48.570;7.916;2023-07-13T06:58:23;19.70;99.90
10155;DHT22;5118;48.570;7.916;2023-07-13T07:00:52;19.80;99.90
10155;DHT22;5118;48.570;7.916;2023-07-13T07:03:21;19.80;99.90
10155;DHT22;5118;48.570;7.916;2023-07-13T07:05:51;19.90;99.90
10155;DHT22;5118;48.570;7.916;2023-07-13T07:08:20;19.90;99.90
10155;DHT22;5118;48.570;7.916;2023-07-13T07:10:48;19.90;99.90
10155;DHT22;5118;48.570;7.916;2023-07-13T07:13:21;20.00;99.90
10155;DHT22;5118;48.570;7.916;2023-07-13T07:15:50;20.10;99.90
10155;DHT22;5118;48.570;7.916;2023-07-13T07:18:19;20.20;99.90
10155;DHT22;5118;48.570;7.916;2023-07-13T07:20:49;20.30;99.90
10155;DHT22;5118;48.570;7.916;2023-07-13T07:23:19;20.30;99.90
10155;DHT22;5118;48.570;7.916;2023-07-13T07:25:47;20.40;99.90
10155;DHT22;5118;48.570;7.916;2023-07-13T07:28:16;20.50;99.90
10155;DHT22;5118;48.570;7.916;2023-07-13T07:30:48;20.50;99.90
10155;DHT22;5118;48.570;7.916;2023-07-13T07:33:20;20.60;99.90
10155;DHT22;5118;48.570;7.916;2023-07-13T07:35:49;20.70;99.90
10155;DHT22;5118;48.570;7.916;2023-07-13T07:38:22;20.80;99.90
10155;DHT22;5118;48.570;7.916;2023-07-13T07:40:51;20.90;99.90
10155;DHT22;5118;48.570;7.916;2023-07-13T07:43:22;21.00;99.90
10155;DHT22;5118;48.570;7.916;2023-07-13T07:45:51;21.10;99.90
10155;DHT22;5118;48.570;7.916;2023-07-13T07:48:19;21.20;99.90
10155;DHT22;5118;48.570;7.916;2023-07-13T07:50:48;21.30;99.90
10155;DHT22;5118;48.570;7.916;2023-07-13T07:53:16;21.40;99.90
10155;DHT22;5118;48.570;7.916;2023-07-13T07:55:46;21.50;99.90
10155;DHT22;5118;48.570;7.916;2023-07-13T07:58:18;21.60;99.90
10155;DHT22;5118;48.570;7.916;2023-07-13T08:00:49;21.60;99.90
10155;DHT22;5118;48.570;7.916;2023-07-13T08:03:21;21.70;99.90
10155;DHT22;5118;48.570;7.916;2023-07-13T08:05:52;21.80;99.90
10155;DHT22;5118;48.570;7.916;2023-07-13T08:08:24;21.90;99.90
10155;DHT22;5118;48.570;7.916;2023-07-13T08:10:54;21.90;99.90
10155;DHT22;5118;48.570;7.916;2023-07-13T08:13:27;22.00;99.90
10155;DHT22;5118;48.570;7.916;2023-07-13T08:15:55;22.10;99.90
10155;DHT22;5118;48.570;7.916;2023-07-13T08:18:23;22.20;99.90
10155;DHT22;5118;48.570;7.916;2023-07-13T08:20:52;22.20;99.90
10155;DHT22;5118;48.570;7.916;2023-07-13T08:23:23;22.20;99.90
10155;DHT22;5118;48.570;7.916;2023-07-13T08:25:51;22.20;99.90
10155;DHT22;5118;48.570;7.916;2023-07-13T08:28:22;22.30;99.90
10155;DHT22;5118;48.570;7.916;2023-07-13T08:30:50;22.50;99.90
10155;DHT22;5118;48.570;7.916;2023-07-13T08:33:20;22.50;99.90
10155;DHT22;5118;48.570;7.916;2023-07-13T08:35:50;22.60;99.90
10155;DHT22;5118;48.570;7.916;2023-07-13T08:38:19;22.70;99.90
10155;DHT22;5118;48.570;7.916;2023-07-13T08:40:50;22.80;99.90
10155;DHT22;5118;48.570;7.916;2023-07-13T08:43:25;23.00;99.90
10155;DHT22;5118;48.570;7.916;2023-07-13T08:45:57;23.10;99.90
10155;DHT22;5118;48.570;7.916;2023-07-13T08:48:30;23.20;99.90
10155;DHT22;5118;48.570;7.916;2023-07-13T08:51:07;23.30;99.90
10155;DHT22;5118;48.570;7.916;2023-07-13T08:53:40;23.50;99.90
10155;DHT22;5118;48.570;7.916;2023-07-13T08:56:16;23.70;99.90
10155;DHT22;5118;48.570;7.916;2023-07-13T08:58:56;23.80;99.40
10155;DHT22;5118;48.570;7.916;2023-07-13T09:01:31;23.90;99.00
10155;DHT22;5118;48.570;7.916;2023-07-13T09:04:07;24.10;97.90
10155;DHT22;5118;48.570;7.916;2023-07-13T09:06:42;24.10;99.10
10155;DHT22;5118;48.570;7.916;2023-07-13T09:09:20;24.10;96.70
10155;DHT22;5118;48.570;7.916;2023-07-13T09:11:56;24.10;96.20
10155;DHT22;5118;48.570;7.916;2023-07-13T09:14:41;24.20;96.30
10155;DHT22;5118;48.570;7.916;2023-07-13T09:17:17;24.30;98.30
10155;DHT22;5118;48.570;7.916;2023-07-13T09:19:50;24.50;97.70
10155;DHT22;5118;48.570;7.916;2023-07-13T09:22:22;24.70;97.70
10155;DHT22;5118;48.570;7.916;2023-07-13T09:24:57;24.80;95.80
10155;DHT22;5118;48.570;7.916;2023-07-13T09:27:31;24.90;95.70
10155;DHT22;5118;48.570;7.916;2023-07-13T09:30:21;25.10;96.80
10155;DHT22;5118;48.570;7.916;2023-07-13T09:32:53;25.40;95.90
10155;DHT22;5118;48.570;7.916;2023-07-13T09:35:24;25.60;94.50
10155;DHT22;5118;48.570;7.916;2023-07-13T09:37:58;25.70;93.40
10155;DHT22;5118;48.570;7.916;2023-07-13T09:40:43;25.90;91.30
10155;DHT22;5118;48.570;7.916;2023-07-13T09:43:14;26.00;91.80
10155;DHT22;5118;48.570;7.916;2023-07-13T09:45:46;26.00;90.50
10155;DHT22;5118;48.570;7.916;2023-07-13T09:48:16;26.00;88.70
10155;DHT22;5118;48.570;7.916;2023-07-13T09:50:45;26.00;86.60
10155;DHT22;5118;48.570;7.916;2023-07-13T09:53:15;26.10;88.60
10155;DHT22;5118;48.570;7.916;2023-07-13T09:55:46;26.10;82.20
10155;DHT22;5118;48.570;7.916;2023-07-13T09:58:21;26.10;85.30
10155;DHT22;5118;48.570;7.916;2023-07-13T10:00:56;26.40;88.50
10155;DHT22;5118;48.570;7.916;2023-07-13T10:03:27;26.50;89.80
10155;DHT22;5118;48.570;7.916;2023-07-13T10:06:06;26.80;85.70
10155;DHT22;5118;48.570;7.916;2023-07-13T10:08:38;26.90;80.90
10155;DHT22;5118;48.570;7.916;2023-07-13T10:11:11;27.00;81.60
10155;DHT22;5118;48.570;7.916;2023-07-13T10:13:42;27.20;82.40
10155;DHT22;5118;48.570;7.916;2023-07-13T10:16:13;27.50;84.30
10155;DHT22;5118;48.570;7.916;2023-07-13T10:18:46;27.70;84.90
10155;DHT22;5118;48.570;7.916;2023-07-13T10:21:17;28.00;82.50
10155;DHT22;5118;48.570;7.916;2023-07-13T10:24:05;28.20;79.20
10155;DHT22;5118;48.570;7.916;2023-07-13T10:26:41;28.20;77.50
10155;DHT22;5118;48.570;7.916;2023-07-13T10:29:14;28.10;73.90
10155;DHT22;5118;48.570;7.916;2023-07-13T10:31:45;28.10;77.70
10155;DHT22;5118;48.570;7.916;2023-07-13T10:34:14;27.90;72.80
10155;DHT22;5118;48.570;7.916;2023-07-13T10:36:44;27.80;73.80
10155;DHT22;5118;48.570;7.916;2023-07-13T10:39:16;27.60;74.90
10155;DHT22;5118;48.570;7.916;2023-07-13T10:41:49;27.50;75.60
10155;DHT22;5118;48.570;7.916;2023-07-13T10:44:22;27.30;75.80
10155;DHT22;5118;48.570;7.916;2023-07-13T10:46:58;27.20;74.60
10155;DHT22;5118;48.570;7.916;2023-07-13T10:49:29;27.30;77.80
10155;DHT22;5118;48.570;7.916;2023-07-13T10:51:58;27.40;78.90
10155;DHT22;5118;48.570;7.916;2023-07-13T10:54:30;27.70;76.20
10155;DHT22;5118;48.570;7.916;2023-07-13T10:57:16;27.80;73.30
10155;DHT22;5118;48.570;7.916;2023-07-13T10:59:47;27.80;67.10
10155;DHT22;5118;48.570;7.916;2023-07-13T11:02:25;27.90;73.00
10155;DHT22;5118;48.570;7.916;2023-07-13T11:04:56;28.00;70.30
10155;DHT22;5118;48.570;7.916;2023-07-13T11:07:28;28.10;71.80
10155;DHT22;5118;48.570;7.916;2023-07-13T11:09:59;28.30;72.20
10155;DHT22;5118;48.570;7.916;2023-07-13T11:12:49;28.30;67.10
10155;DHT22;5118;48.570;7.916;2023-07-13T11:15:32;28.20;60.00
10155;DHT22;5118;48.570;7.916;2023-07-13T11:18:04;27.90;65.10
10155;DHT22;5118;48.570;7.916;2023-07-13T11:20:38;27.50;60.20
10155;DHT22;5118;48.570;7.916;2023-07-13T11:23:15;27.50;64.70
10155;DHT22;5118;48.570;7.916;2023-07-13T11:25:45;28.20;64.50
10155;DHT22;5118;48.570;7.916;2023-07-13T11:28:24;29.20;67.50
10155;DHT22;5118;48.570;7.916;2023-07-13T11:31:14;30.50;65.10
10155;DHT22;5118;48.570;7.916;2023-07-13T11:34:00;31.80;53.50
10155;DHT22;5118;48.570;7.916;2023-07-13T11:36:36;32.90;53.00
10155;DHT22;5118;48.570;7.916;2023-07-13T11:39:18;33.80;48.60
10155;DHT22;5118;48.570;7.916;2023-07-13T11:41:51;34.60;47.90
10155;DHT22;5118;48.570;7.916;2023-07-13T11:44:21;35.40;46.70
10155;DHT22;5118;48.570;7.916;2023-07-13T11:46:52;36.20;43.50
10155;DHT22;5118;48.570;7.916;2023-07-13T11:49:24;36.90;34.20
10155;DHT22;5118;48.570;7.916;2023-07-13T11:51:54;37.40;28.50
10155;DHT22;5118;48.570;7.916;2023-07-13T11:54:26;37.70;25.60
10155;DHT22;5118;48.570;7.916;2023-07-13T11:56:58;38.00;22.80
10155;DHT22;5118;48.570;7.916;2023-07-13T11:59:30;37.90;20.40
10155;DHT22;5118;48.570;7.916;2023-07-13T12:02:00;37.90;19.90
10155;DHT22;5118;48.570;7.916;2023-07-13T12:04:32;37.20;18.50
10155;DHT22;5118;48.570;7.916;2023-07-13T12:07:05;35.90;19.30
10155;DHT22;5118;48.570;7.916;2023-07-13T12:09:36;34.60;19.20
10155;DHT22;5118;48.570;7.916;2023-07-13T12:12:10;33.40;21.30
10155;DHT22;5118;48.570;7.916;2023-07-13T12:14:40;32.20;22.50
10155;DHT22;5118;48.570;7.916;2023-07-13T12:17:17;30.90;23.20
10155;DHT22;5118;48.570;7.916;2023-07-13T12:19:49;30.00;24.00
10155;DHT22;5118;48.570;7.916;2023-07-13T12:22:19;29.50;24.40
10155;DHT22;5118;48.570;7.916;2023-07-13T12:24:51;29.10;26.60
10155;DHT22;5118;48.570;7.916;2023-07-13T12:27:24;28.90;27.10
10155;DHT22;5118;48.570;7.916;2023-07-13T12:29:59;28.60;27.70
10155;DHT22;5118;48.570;7.916;2023-07-13T12:32:28;28.50;27.50
10155;DHT22;5118;48.570;7.916;2023-07-13T12:35:14;28.10;27.20
10155;DHT22;5118;48.570;7.916;2023-07-13T12:37:43;28.10;28.30
10155;DHT22;5118;48.570;7.916;2023-07-13T12:40:15;28.30;28.60
10155;DHT22;5118;48.570;7.916;2023-07-13T12:42:46;29.20;30.80
10155;DHT22;5118;48.570;7.916;2023-07-13T12:45:20;30.60;30.60
10155;DHT22;5118;48.570;7.916;2023-07-13T12:47:52;32.00;25.40
10155;DHT22;5118;48.570;7.916;2023-07-13T12:50:24;33.20;25.90
10155;DHT22;5118;48.570;7.916;2023-07-13T12:53:01;34.50;23.90
10155;DHT22;5118;48.570;7.916;2023-07-13T12:55:31;35.60;21.10
10155;DHT22;5118;48.570;7.916;2023-07-13T12:58:03;36.30;21.40
10155;DHT22;5118;48.570;7.916;2023-07-13T13:00:35;37.00;18.60
10155;DHT22;5118;48.570;7.916;2023-07-13T13:03:10;37.90;19.20
10155;DHT22;5118;48.570;7.916;2023-07-13T13:06:02;38.70;19.70
10155;DHT22;5118;48.570;7.916;2023-07-13T13:08:33;39.80;16.60
10155;DHT22;5118;48.570;7.916;2023-07-13T13:11:02;40.60;15.90
10155;DHT22;5118;48.570;7.916;2023-07-13T13:13:31;40.90;14.50
10155;DHT22;5118;48.570;7.916;2023-07-13T13:16:02;41.10;11.40
10155;DHT22;5118;48.570;7.916;2023-07-13T13:18:33;40.90;9.70
10155;DHT22;5118;48.570;7.916;2023-07-13T13:21:04;41.10;8.70
10155;DHT22;5118;48.570;7.916;2023-07-13T13:23:34;41.30;8.50
10155;DHT22;5118;48.570;7.916;2023-07-13T13:26:02;41.40;9.30
10155;DHT22;5118;48.570;7.916;2023-07-13T13:28:31;41.60;9.40
10155;DHT22;5118;48.570;7.916;2023-07-13T13:31:01;41.70;7.70
10155;DHT22;5118;48.570;7.916;2023-07-13T13:33:29;42.10;7.80
10155;DHT22;5118;48.570;7.916;2023-07-13T13:35:58;42.50;7.20
10155;DHT22;5118;48.570;7.916;2023-07-13T13:38:28;42.70;5.70
10155;DHT22;5118;48.570;7.916;2023-07-13T13:40:57;42.30;5.30
10155;DHT22;5118;48.570;7.916;2023-07-13T13:43:26;41.30;5.00
10155;DHT22;5118;48.570;7.916;2023-07-13T13:45:57;39.60;4.90
10155;DHT22;5118;48.570;7.916;2023-07-13T13:48:30;37.50;5.80
10155;DHT22;5118;48.570;7.916;2023-07-13T13:51:00;36.40;7.50
10155;DHT22;5118;48.570;7.916;2023-07-13T13:53:31;35.90;8.90
10155;DHT22;5118;48.570;7.916;2023-07-13T13:56:00;35.40;8.00
10155;DHT22;5118;48.570;7.916;2023-07-13T13:58:28;35.10;10.00
10155;DHT22;5118;48.570;7.916;2023-07-13T14:00:57;35.30;9.90
10155;DHT22;5118;48.570;7.916;2023-07-13T14:03:26;35.30;9.70
10155;DHT22;5118;48.570;7.916;2023-07-13T14:05:56;34.90;9.80
10155;DHT22;5118;48.570;7.916;2023-07-13T14:08:25;34.20;10.50
10155;DHT22;5118;48.570;7.916;2023-07-13T14:10:56;33.70;10.50
10155;DHT22;5118;48.570;7.916;2023-07-13T14:13:28;33.40;10.00
10155;DHT22;5118;48.570;7.916;2023-07-13T14:15:59;32.90;10.50
10155;DHT22;5118;48.570;7.916;2023-07-13T14:18:28;32.40;10.50
10155;DHT22;5118;48.570;7.916;2023-07-13T14:20:56;32.00;11.30
10155;DHT22;5118;48.570;7.916;2023-07-13T14:23:24;31.50;13.30
10155;DHT22;5118;48.570;7.916;2023-07-13T14:25:54;31.00;14.00
10155;DHT22;5118;48.570;7.916;2023-07-13T14:28:23;30.70;14.90
10155;DHT22;5118;48.570;7.916;2023-07-13T14:30:53;30.40;14.90
10155;DHT22;5118;48.570;7.916;2023-07-13T14:33:22;30.10;15.00
10155;DHT22;5118;48.570;7.916;2023-07-13T14:35:51;29.80;15.90
10155;DHT22;5118;48.570;7.916;2023-07-13T14:38:20;29.50;16.20
10155;DHT22;5118;48.570;7.916;2023-07-13T14:40:49;29.30;17.10
10155;DHT22;5118;48.570;7.916;2023-07-13T14:43:18;29.30;17.50
10155;DHT22;5118;48.570;7.916;2023-07-13T14:45:50;30.00;18.10
10155;DHT22;5118;48.570;7.916;2023-07-13T14:48:22;31.20;17.10
10155;DHT22;5118;48.570;7.916;2023-07-13T14:50:54;32.70;15.10
10155;DHT22;5118;48.570;7.916;2023-07-13T14:53:25;33.90;15.20
10155;DHT22;5118;48.570;7.916;2023-07-13T14:55:54;34.40;13.00
10155;DHT22;5118;48.570;7.916;2023-07-13T14:58:24;34.50;12.30
10155;DHT22;5118;48.570;7.916;2023-07-13T15:00:53;34.10;11.50
10155;DHT22;5118;48.570;7.916;2023-07-13T15:03:25;33.50;11.80
10155;DHT22;5118;48.570;7.916;2023-07-13T15:05:54;32.80;13.10
10155;DHT22;5118;48.570;7.916;2023-07-13T15:08:22;32.50;13.60
10155;DHT22;5118;48.570;7.916;2023-07-13T15:10:50;32.30;13.20
10155;DHT22;5118;48.570;7.916;2023-07-13T15:13:20;32.10;13.20
10155;DHT22;5118;48.570;7.916;2023-07-13T15:15:53;31.30;13.80
10155;DHT22;5118;48.570;7.916;2023-07-13T15:18:23;30.90;14.70
10155;DHT22;5118;48.570;7.916;2023-07-13T15:20:54;30.80;15.70
10155;DHT22;5118;48.570;7.916;2023-07-13T15:23:25;30.90;15.10
10155;DHT22;5118;48.570;7.916;2023-07-13T15:25:53;31.00;14.50
10155;DHT22;5118;48.570;7.916;2023-07-13T15:28:22;31.70;14.70
10155;DHT22;5118;48.570;7.916;2023-07-13T15:30:52;32.90;13.60
10155;DHT22;5118;48.570;7.916;2023-07-13T15:33:23;33.20;12.50
10155;DHT22;5118;48.570;7.916;2023-07-13T15:35:52;33.50;12.30
10155;DHT22;5118;48.570;7.916;2023-07-13T15:38:23;33.40;12.40
10155;DHT22;5118;48.570;7.916;2023-07-13T15:40:53;33.00;11.70
10155;DHT22;5118;48.570;7.916;2023-07-13T15:43:22;32.50;11.60
10155;DHT22;5118;48.570;7.916;2023-07-13T15:45:52;32.00;13.10
10155;DHT22;5118;48.570;7.916;2023-07-13T15:48:22;31.60;14.10
10155;DHT22;5118;48.570;7.916;2023-07-13T15:50:52;31.50;13.80
10155;DHT22;5118;48.570;7.916;2023-07-13T15:53:24;31.10;14.00
10155;DHT22;5118;48.570;7.916;2023-07-13T15:55:53;30.80;15.20
10155;DHT22;5118;48.570;7.916;2023-07-13T15:58:22;30.50;15.50
10155;DHT22;5118;48.570;7.916;2023-07-13T16:00:51;30.30;15.40
10155;DHT22;5118;48.570;7.916;2023-07-13T16:03:21;30.20;16.60
10155;DHT22;5118;48.570;7.916;2023-07-13T16:05:51;30.10;17.30
10155;DHT22;5118;48.570;7.916;2023-07-13T16:08:24;30.00;16.70
10155;DHT22;5118;48.570;7.916;2023-07-13T16:10:53;30.00;16.40